sensor_id;sensor_type;location;lat;lon;timestamp;temperature;humidity
8965;DHT22;4517;49.020;12.066;2023-03-31T00:02:03;5.60;99.90
8965;DHT22;4517;49.020;12.066;2023-03-31T00:04:40;5.50;99.90
8965;DHT22;4517;49.020;12.066;2023-03-31T00:07:13;5.50;99.90
8965;DHT22;4517;49.020;12.066;2023-03-31T00:09:41;5.50;99.90
8965;DHT22;4517;49.020;12.066;2023-03-31T00:12:11;5.60;99.90
8965;DHT22;4517;49.020;12.066;2023-03-31T00:14:37;5.60;99.90
8965;DHT22;4517;49.020;12.066;2023-03-31T00:17:02;5.60;99.90
8965;DHT22;4517;49.020;12.066;2023-03-31T00:19:28;5.50;99.90
8965;DHT22;4517;49.020;12.066;2023-03-31T00:21:58;5.50;99.90
8965;DHT22;4517;49.020;12.066;2023-03-31T00:24:27;5.40;99.90
8965;DHT22;4517;49.020;12.066;2023-03-31T00:26:53;5.40;99.90
8965;DHT22;4517;49.020;12.066;2023-03-31T00:29:18;5.50;99.90
8965;DHT22;4517;49.020;12.066;2023-03-31T00:31:44;5.60;99.90
8965;DHT22;4517;49.020;12.066;2023-03-31T00:34:10;5.60;99.90
8965;DHT22;4517;49.020;12.066;2023-03-31T00:36:35;5.40;99.90
8965;DHT22;4517;49.020;12.066;2023-03-31T00:39:12;5.40;99.90
8965;DHT22;4517;49.020;12.066;2023-03-31T00:41:38;5.60;99.90
8965;DHT22;4517;49.020;12.066;2023-03-31T00:44:06;5.70;99.90
8965;DHT22;4517;49.020;12.066;2023-03-31T00:46:57;5.60;99.90
8965;DHT22;4517;49.020;12.066;2023-03-31T00:49:38;5.60;99.90
8965;DHT22;4517;49.020;12.066;2023-03-31T00:52:19;5.60;99.90
8965;DHT22;4517;49.020;12.066;2023-03-31T00:54:56;5.40;99.90
8965;DHT22;4517;49.020;12.066;2023-03-31T00:57:24;5.30;99.90
8965;DHT22;4517;49.020;12.066;2023-03-31T00:59:58;5.20;99.90
8965;DHT22;4517;49.020;12.066;2023-03-31T01:02:24;5.20;99.90
8965;DHT22;4517;49.020;12.066;2023-03-31T01:05:00;5.30;99.90
8965;DHT22;4517;49.020;12.066;2023-03-31T01:07:38;5.20;99.90
8965;DHT22;4517;49.020;12.066;2023-03-31T01:10:07;5.20;99.90
8965;DHT22;4517;49.020;12.066;2023-03-31T01:12:33;5.20;99.90
8965;DHT22;4517;49.020;12.066;2023-03-31T01:15:02;5.10;99.90
8965;DHT22;4517;49.020;12.066;2023-03-31T01:17:28;5.20;99.90
8965;DHT22;4517;49.020;12.066;2023-03-31T01:28:11;5.00;99.90
8965;DHT22;4517;49.020;12.066;2023-03-31T01:34:18;5.00;99.90
8965;DHT22;4517;49.020;12.066;2023-03-31T01:37:19;4.90;99.90
8965;DHT22;4517;49.020;12.066;2023-03-31T01:40:24;4.90;99.90
8965;DHT22;4517;49.020;12.066;2023-03-31T01:51:31;5.00;99.90
8965;DHT22;4517;49.020;12.066;2023-03-31T01:56:52;5.00;99.90
8965;DHT22;4517;49.020;12.066;2023-03-31T01:59:30;5.10;99.90
8965;DHT22;4517;49.020;12.066;2023-03-31T02:02:09;5.10;99.90
8965;DHT22;4517;49.020;12.066;2023-03-31T02:04:40;5.10;99.90
8965;DHT22;4517;49.020;12.066;2023-03-31T02:07:12;5.20;99.90
8965;DHT22;4517;49.020;12.066;2023-03-31T02:09:41;5.30;99.90
8965;DHT22;4517;49.020;12.066;2023-03-31T02:12:10;5.40;99.90
8965;DHT22;4517;49.020;12.066;2023-03-31T02:14:39;5.40;99.90
8965;DHT22;4517;49.020;12.066;2023-03-31T02:17:10;5.50;99.90
8965;DHT22;4517;49.020;12.066;2023-03-31T02:19:41;5.60;99.90
8965;DHT22;4517;49.020;12.066;2023-03-31T02:22:09;5.60;99.90
8965;DHT22;4517;49.020;12.066;2023-03-31T02:24:37;5.60;99.90
8965;DHT22;4517;49.020;12.066;2023-03-31T02:27:11;5.60;99.90
8965;DHT22;4517;49.020;12.066;2023-03-31T02:29:38;5.60;99.90
8965;DHT22;4517;49.020;12.066;2023-03-31T02:34:35;5.60;99.90
8965;DHT22;4517;49.020;12.066;2023-03-31T02:37:01;5.70;99.90
8965;DHT22;4517;49.020;12.066;2023-03-31T02:39:31;5.70;99.90
8965;DHT22;4517;49.020;12.066;2023-03-31T02:41:57;5.70;99.90
8965;DHT22;4517;49.020;12.066;2023-03-31T02:44:23;5.80;99.90
8965;DHT22;4517;49.020;12.066;2023-03-31T02:46:55;5.80;99.90
8965;DHT22;4517;49.020;12.066;2023-03-31T02:49:21;5.80;99.90
8965;DHT22;4517;49.020;12.066;2023-03-31T02:52:05;5.90;99.90
8965;DHT22;4517;49.020;12.066;2023-03-31T02:55:00;5.90;99.90
8965;DHT22;4517;49.020;12.066;2023-03-31T03:00:21;6.00;99.90
8965;DHT22;4517;49.020;12.066;2023-03-31T03:11:12;6.10;99.90
8965;DHT22;4517;49.020;12.066;2023-03-31T03:13:50;6.10;99.90
8965;DHT22;4517;49.020;12.066;2023-03-31T03:16:23;6.10;99.90
8965;DHT22;4517;49.020;12.066;2023-03-31T03:19:04;6.10;99.90
8965;DHT22;4517;49.020;12.066;2023-03-31T03:21:31;6.10;99.90
8965;DHT22;4517;49.020;12.066;2023-03-31T03:23:57;6.10;99.90
8965;DHT22;4517;49.020;12.066;2023-03-31T03:26:24;6.10;99.90
8965;DHT22;4517;49.020;12.066;2023-03-31T03:28:53;6.10;99.90
8965;DHT22;4517;49.020;12.066;2023-03-31T03:31:20;6.20;99.90
8965;DHT22;4517;49.020;12.066;2023-03-31T03:33:49;6.10;99.90
8965;DHT22;4517;49.020;12.066;2023-03-31T03:36:14;6.20;99.90
8965;DHT22;4517;49.020;12.066;2023-03-31T03:38:40;6.20;99.90
8965;DHT22;4517;49.020;12.066;2023-03-31T03:41:06;6.10;99.90
8965;DHT22;4517;49.020;12.066;2023-03-31T03:43:32;6.20;99.90
8965;DHT22;4517;49.020;12.066;2023-03-31T03:45:58;6.10;99.90
8965;DHT22;4517;49.020;12.066;2023-03-31T03:48:23;6.20;99.90
8965;DHT22;4517;49.020;12.066;2023-03-31T03:50:49;6.10;99.90
8965;DHT22;4517;49.020;12.066;2023-03-31T03:53:15;6.10;99.90
8965;DHT22;4517;49.020;12.066;2023-03-31T03:55:41;6.20;99.90
8965;DHT22;4517;49.020;12.066;2023-03-31T03:58:06;6.20;99.90
8965;DHT22;4517;49.020;12.066;2023-03-31T04:00:32;6.20;99.90
8965;DHT22;4517;49.020;12.066;2023-03-31T04:02:57;6.20;99.90
8965;DHT22;4517;49.020;12.066;2023-03-31T04:05:23;6.20;99.90
8965;DHT22;4517;49.020;12.066;2023-03-31T04:07:49;6.20;99.90
8965;DHT22;4517;49.020;12.066;2023-03-31T04:10:14;6.30;99.90
8965;DHT22;4517;49.020;12.066;2023-03-31T04:12:40;6.30;99.90
8965;DHT22;4517;49.020;12.066;2023-03-31T04:15:06;6.30;99.90
8965;DHT22;4517;49.020;12.066;2023-03-31T04:17:32;6.30;99.90
8965;DHT22;4517;49.020;12.066;2023-03-31T04:20:07;6.30;99.90
8965;DHT22;4517;49.020;12.066;2023-03-31T04:22:34;6.40;99.90
8965;DHT22;4517;49.020;12.066;2023-03-31T04:25:06;6.30;99.90
8965;DHT22;4517;49.020;12.066;2023-03-31T04:27:35;6.40;99.90
8965;DHT22;4517;49.020;12.066;2023-03-31T04:30:01;6.30;99.90
8965;DHT22;4517;49.020;12.066;2023-03-31T04:32:27;6.30;99.90
8965;DHT22;4517;49.020;12.066;2023-03-31T04:34:57;6.30;99.90
8965;DHT22;4517;49.020;12.066;2023-03-31T04:37:29;6.30;99.90
8965;DHT22;4517;49.020;12.066;2023-03-31T04:40:00;6.40;99.90
8965;DHT22;4517;49.020;12.066;2023-03-31T04:42:32;6.40;99.90
8965;DHT22;4517;49.020;12.066;2023-03-31T04:44:58;6.40;99.90
8965;DHT22;4517;49.020;12.066;2023-03-31T04:47:23;6.40;99.90
8965;DHT22;4517;49.020;12.066;2023-03-31T04:49:49;6.40;99.90
8965;DHT22;4517;49.020;12.066;2023-03-31T04:52:15;6.40;99.90
8965;DHT22;4517;49.020;12.066;2023-03-31T04:54:40;6.40;99.90
8965;DHT22;4517;49.020;12.066;2023-03-31T04:57:06;6.40;99.90
8965;DHT22;4517;49.020;12.066;2023-03-31T04:59:31;6.50;99.90
8965;DHT22;4517;49.020;12.066;2023-03-31T05:01:57;6.40;99.90
8965;DHT22;4517;49.020;12.066;2023-03-31T05:04:22;6.40;99.90
8965;DHT22;4517;49.020;12.066;2023-03-31T05:06:48;6.40;99.90
8965;DHT22;4517;49.020;12.066;2023-03-31T05:09:13;6.40;99.90
8965;DHT22;4517;49.020;12.066;2023-03-31T05:11:39;6.40;99.90
8965;DHT22;4517;49.020;12.066;2023-03-31T05:14:05;6.50;99.90
8965;DHT22;4517;49.020;12.066;2023-03-31T05:16:30;6.50;99.90
8965;DHT22;4517;49.020;12.066;2023-03-31T05:18:56;6.50;99.90
8965;DHT22;4517;49.020;12.066;2023-03-31T05:21:22;6.50;99.90
8965;DHT22;4517;49.020;12.066;2023-03-31T05:23:47;6.50;99.90
8965;DHT22;4517;49.020;12.066;2023-03-31T05:26:13;6.50;99.90
8965;DHT22;4517;49.020;12.066;2023-03-31T05:28:39;6.50;99.90
8965;DHT22;4517;49.020;12.066;2023-03-31T05:31:06;6.50;99.90
8965;DHT22;4517;49.020;12.066;2023-03-31T05:33:32;6.50;99.90
8965;DHT22;4517;49.020;12.066;2023-03-31T05:35:58;6.40;99.90
8965;DHT22;4517;49.020;12.066;2023-03-31T05:38:27;6.40;99.90
8965;DHT22;4517;49.020;12.066;2023-03-31T05:40:56;6.50;99.90
8965;DHT22;4517;49.020;12.066;2023-03-31T05:43:21;6.50;99.90
8965;DHT22;4517;49.020;12.066;2023-03-31T05:45:47;6.50;99.90
8965;DHT22;4517;49.020;12.066;2023-03-31T05:48:13;6.50;99.90
8965;DHT22;4517;49.020;12.066;2023-03-31T05:50:38;6.50;99.90
8965;DHT22;4517;49.020;12.066;2023-03-31T05:53:04;6.60;99.90
8965;DHT22;4517;49.020;12.066;2023-03-31T05:55:31;6.60;99.90
8965;DHT22;4517;49.020;12.066;2023-03-31T05:57:58;6.60;99.90
8965;DHT22;4517;49.020;12.066;2023-03-31T06:00:23;6.60;99.90
8965;DHT22;4517;49.020;12.066;2023-03-31T06:02:49;6.60;99.90
8965;DHT22;4517;49.020;12.066;2023-03-31T06:05:15;6.60;99.90
8965;DHT22;4517;49.020;12.066;2023-03-31T06:07:41;6.70;99.90
8965;DHT22;4517;49.020;12.066;2023-03-31T06:10:07;6.70;99.90
8965;DHT22;4517;49.020;12.066;2023-03-31T06:12:35;6.70;99.90
8965;DHT22;4517;49.020;12.066;2023-03-31T06:15:01;6.70;99.90
8965;DHT22;4517;49.020;12.066;2023-03-31T06:17:26;6.70;99.90
8965;DHT22;4517;49.020;12.066;2023-03-31T06:19:53;6.80;99.90
8965;DHT22;4517;49.020;12.066;2023-03-31T06:22:18;6.80;99.90
8965;DHT22;4517;49.020;12.066;2023-03-31T06:24:45;6.80;99.90
8965;DHT22;4517;49.020;12.066;2023-03-31T06:27:10;6.80;99.90
8965;DHT22;4517;49.020;12.066;2023-03-31T06:29:36;6.90;99.90
8965;DHT22;4517;49.020;12.066;2023-03-31T06:32:02;6.90;99.90
8965;DHT22;4517;49.020;12.066;2023-03-31T06:34:29;7.00;99.90
8965;DHT22;4517;49.020;12.066;2023-03-31T06:36:54;7.10;99.90
8965;DHT22;4517;49.020;12.066;2023-03-31T06:39:22;7.20;99.90
8965;DHT22;4517;49.020;12.066;2023-03-31T06:41:48;7.40;99.90
8965;DHT22;4517;49.020;12.066;2023-03-31T06:44:14;7.40;99.90
8965;DHT22;4517;49.020;12.066;2023-03-31T06:46:41;7.50;99.90
8965;DHT22;4517;49.020;12.066;2023-03-31T06:49:07;7.50;99.90
8965;DHT22;4517;49.020;12.066;2023-03-31T06:51:33;7.50;99.90
8965;DHT22;4517;49.020;12.066;2023-03-31T06:53:58;7.40;99.90
8965;DHT22;4517;49.020;12.066;2023-03-31T06:56:24;7.40;99.90
8965;DHT22;4517;49.020;12.066;2023-03-31T06:58:49;7.40;99.90
8965;DHT22;4517;49.020;12.066;2023-03-31T07:01:15;7.40;99.90
8965;DHT22;4517;49.020;12.066;2023-03-31T07:03:41;7.50;99.90
8965;DHT22;4517;49.020;12.066;2023-03-31T07:06:06;7.60;99.90
8965;DHT22;4517;49.020;12.066;2023-03-31T07:08:32;7.70;99.90
8965;DHT22;4517;49.020;12.066;2023-03-31T07:10:59;7.70;99.90
8965;DHT22;4517;49.020;12.066;2023-03-31T07:13:25;7.70;99.90
8965;DHT22;4517;49.020;12.066;2023-03-31T07:15:51;7.80;99.90
8965;DHT22;4517;49.020;12.066;2023-03-31T07:18:18;7.80;99.90
8965;DHT22;4517;49.020;12.066;2023-03-31T07:20:47;7.90;99.90
8965;DHT22;4517;49.020;12.066;2023-03-31T07:23:12;7.80;99.90
8965;DHT22;4517;49.020;12.066;2023-03-31T07:25:38;7.70;99.90
8965;DHT22;4517;49.020;12.066;2023-03-31T07:28:04;7.70;99.90
8965;DHT22;4517;49.020;12.066;2023-03-31T07:30:31;7.70;99.90
8965;DHT22;4517;49.020;12.066;2023-03-31T07:33:01;7.70;99.90
8965;DHT22;4517;49.020;12.066;2023-03-31T07:35:27;7.70;99.90
8965;DHT22;4517;49.020;12.066;2023-03-31T07:37:53;7.70;99.90
8965;DHT22;4517;49.020;12.066;2023-03-31T07:40:28;7.60;99.90
8965;DHT22;4517;49.020;12.066;2023-03-31T07:42:54;7.60;99.90
8965;DHT22;4517;49.020;12.066;2023-03-31T07:45:21;7.50;99.90
8965;DHT22;4517;49.020;12.066;2023-03-31T07:47:48;7.50;99.90
8965;DHT22;4517;49.020;12.066;2023-03-31T07:50:14;7.50;99.90
8965;DHT22;4517;49.020;12.066;2023-03-31T07:52:41;7.60;99.90
8965;DHT22;4517;49.020;12.066;2023-03-31T07:55:07;7.60;99.90
8965;DHT22;4517;49.020;12.066;2023-03-31T07:57:34;7.60;99.90
8965;DHT22;4517;49.020;12.066;2023-03-31T08:00:00;7.60;99.90
8965;DHT22;4517;49.020;12.066;2023-03-31T08:02:30;7.60;99.90
8965;DHT22;4517;49.020;12.066;2023-03-31T08:04:56;7.70;99.90
8965;DHT22;4517;49.020;12.066;2023-03-31T08:07:22;7.70;99.90
8965;DHT22;4517;49.020;12.066;2023-03-31T08:09:47;7.80;99.90
8965;DHT22;4517;49.020;12.066;2023-03-31T08:12:14;7.90;99.90
8965;DHT22;4517;49.020;12.066;2023-03-31T08:14:40;7.90;99.90
8965;DHT22;4517;49.020;12.066;2023-03-31T08:17:05;7.90;99.90
8965;DHT22;4517;49.020;12.066;2023-03-31T08:19:31;7.80;99.90
8965;DHT22;4517;49.020;12.066;2023-03-31T08:21:56;7.80;99.90
8965;DHT22;4517;49.020;12.066;2023-03-31T08:24:22;7.80;99.90
8965;DHT22;4517;49.020;12.066;2023-03-31T08:26:47;7.80;99.90
8965;DHT22;4517;49.020;12.066;2023-03-31T08:29:13;7.90;99.90
8965;DHT22;4517;49.020;12.066;2023-03-31T08:31:39;7.90;99.90
8965;DHT22;4517;49.020;12.066;2023-03-31T08:34:05;7.90;99.90
8965;DHT22;4517;49.020;12.066;2023-03-31T08:36:31;7.90;99.90
8965;DHT22;4517;49.020;12.066;2023-03-31T08:38:58;7.90;99.90
8965;DHT22;4517;49.020;12.066;2023-03-31T08:41:39;7.90;99.90
8965;DHT22;4517;49.020;12.066;2023-03-31T08:44:12;7.90;99.90
8965;DHT22;4517;49.020;12.066;2023-03-31T08:46:41;7.90;99.90
8965;DHT22;4517;49.020;12.066;2023-03-31T08:49:14;8.10;99.90
8965;DHT22;4517;49.020;12.066;2023-03-31T08:51:46;8.20;99.90
8965;DHT22;4517;49.020;12.066;2023-03-31T08:54:15;8.20;99.90
8965;DHT22;4517;49.020;12.066;2023-03-31T08:56:44;8.20;99.90
8965;DHT22;4517;49.020;12.066;2023-03-31T09:02:09;8.00;99.90
8965;DHT22;4517;49.020;12.066;2023-03-31T09:08:00;8.30;99.90
8965;DHT22;4517;49.020;12.066;2023-03-31T09:18:31;8.00;99.90
8965;DHT22;4517;49.020;12.066;2023-03-31T09:21:20;8.10;99.90
8965;DHT22;4517;49.020;12.066;2023-03-31T09:32:22;8.50;99.90
8965;DHT22;4517;49.020;12.066;2023-03-31T09:35:11;9.10;99.90
8965;DHT22;4517;49.020;12.066;2023-03-31T09:37:38;9.50;99.90
8965;DHT22;4517;49.020;12.066;2023-03-31T09:40:05;9.60;99.90
8965;DHT22;4517;49.020;12.066;2023-03-31T09:42:36;9.50;99.90
8965;DHT22;4517;49.020;12.066;2023-03-31T09:45:04;9.40;99.90
8965;DHT22;4517;49.020;12.066;2023-03-31T09:47:38;9.40;99.90
8965;DHT22;4517;49.020;12.066;2023-03-31T09:50:08;9.20;99.90
8965;DHT22;4517;49.020;12.066;2023-03-31T09:52:41;9.20;99.90
8965;DHT22;4517;49.020;12.066;2023-03-31T09:55:24;9.20;99.90
8965;DHT22;4517;49.020;12.066;2023-03-31T09:57:51;9.20;99.90
8965;DHT22;4517;49.020;12.066;2023-03-31T10:00:20;9.50;99.90
8965;DHT22;4517;49.020;12.066;2023-03-31T10:02:53;9.80;99.90
8965;DHT22;4517;49.020;12.066;2023-03-31T10:05:58;10.20;99.90
8965;DHT22;4517;49.020;12.066;2023-03-31T10:08:30;10.40;99.90
8965;DHT22;4517;49.020;12.066;2023-03-31T10:13:36;10.90;99.90
8965;DHT22;4517;49.020;12.066;2023-03-31T10:16:05;11.20;99.90
8965;DHT22;4517;49.020;12.066;2023-03-31T10:18:37;11.70;99.90
8965;DHT22;4517;49.020;12.066;2023-03-31T10:21:05;11.60;99.90
8965;DHT22;4517;49.020;12.066;2023-03-31T10:23:32;11.80;99.90
8965;DHT22;4517;49.020;12.066;2023-03-31T10:25:59;11.50;99.90
8965;DHT22;4517;49.020;12.066;2023-03-31T10:28:25;11.60;99.90
8965;DHT22;4517;49.020;12.066;2023-03-31T10:30:56;11.70;99.90
8965;DHT22;4517;49.020;12.066;2023-03-31T10:33:26;11.90;99.90
8965;DHT22;4517;49.020;12.066;2023-03-31T10:36:00;11.70;99.90
8965;DHT22;4517;49.020;12.066;2023-03-31T10:38:36;12.00;99.90
8965;DHT22;4517;49.020;12.066;2023-03-31T10:41:04;12.30;99.90
8965;DHT22;4517;49.020;12.066;2023-03-31T10:43:40;12.40;99.90
8965;DHT22;4517;49.020;12.066;2023-03-31T10:46:06;12.40;99.90
8965;DHT22;4517;49.020;12.066;2023-03-31T10:48:34;12.60;99.90
8965;DHT22;4517;49.020;12.066;2023-03-31T10:51:19;12.60;99.90
8965;DHT22;4517;49.020;12.066;2023-03-31T10:53:50;12.80;99.90
8965;DHT22;4517;49.020;12.066;2023-03-31T10:56:38;13.40;99.90
8965;DHT22;4517;49.020;12.066;2023-03-31T11:01:57;12.90;99.90
8965;DHT22;4517;49.020;12.066;2023-03-31T11:07:58;12.80;99.90
8965;DHT22;4517;49.020;12.066;2023-03-31T11:10:38;13.20;99.90
8965;DHT22;4517;49.020;12.066;2023-03-31T11:13:16;13.50;99.90
8965;DHT22;4517;49.020;12.066;2023-03-31T11:23:48;14.30;99.90
8965;DHT22;4517;49.020;12.066;2023-03-31T11:26:37;14.90;99.90
8965;DHT22;4517;49.020;12.066;2023-03-31T11:42:32;16.60;99.90
8965;DHT22;4517;49.020;12.066;2023-03-31T11:45:04;17.10;99.90
8965;DHT22;4517;49.020;12.066;2023-03-31T11:47:38;17.30;99.90
8965;DHT22;4517;49.020;12.066;2023-03-31T11:50:13;17.50;99.90
8965;DHT22;4517;49.020;12.066;2023-03-31T11:52:46;17.40;99.90
8965;DHT22;4517;49.020;12.066;2023-03-31T11:55:20;17.50;99.90
8965;DHT22;4517;49.020;12.066;2023-03-31T11:58:05;17.70;99.90
8965;DHT22;4517;49.020;12.066;2023-03-31T12:03:30;17.70;99.90
8965;DHT22;4517;49.020;12.066;2023-03-31T12:06:03;17.60;99.90
8965;DHT22;4517;49.020;12.066;2023-03-31T12:11:21;18.00;99.90
8965;DHT22;4517;49.020;12.066;2023-03-31T12:16:41;17.90;99.90
8965;DHT22;4517;49.020;12.066;2023-03-31T12:19:32;17.60;99.90
8965;DHT22;4517;49.020;12.066;2023-03-31T12:22:12;17.30;99.90
8965;DHT22;4517;49.020;12.066;2023-03-31T12:24:38;17.40;99.90
8965;DHT22;4517;49.020;12.066;2023-03-31T12:30:45;17.60;99.90
8965;DHT22;4517;49.020;12.066;2023-03-31T12:32:52;17.60;99.90
8965;DHT22;4517;49.020;12.066;2023-03-31T12:35:24;17.70;99.90
8965;DHT22;4517;49.020;12.066;2023-03-31T12:38:13;17.80;99.90
8965;DHT22;4517;49.020;12.066;2023-03-31T12:49:11;17.60;99.90
8965;DHT22;4517;49.020;12.066;2023-03-31T12:52:02;16.90;99.90
8965;DHT22;4517;49.020;12.066;2023-03-31T12:54:42;14.30;99.90
8965;DHT22;4517;49.020;12.066;2023-03-31T12:57:18;11.30;99.90
8965;DHT22;4517;49.020;12.066;2023-03-31T12:59:45;10.80;99.90
8965;DHT22;4517;49.020;12.066;2023-03-31T13:02:29;10.70;99.90
8965;DHT22;4517;49.020;12.066;2023-03-31T13:04:55;10.60;99.90
8965;DHT22;4517;49.020;12.066;2023-03-31T13:09:57;10.70;99.90
8965;DHT22;4517;49.020;12.066;2023-03-31T13:12:24;10.90;99.90
8965;DHT22;4517;49.020;12.066;2023-03-31T13:14:54;11.10;99.90
8965;DHT22;4517;49.020;12.066;2023-03-31T13:17:27;11.40;99.90
8965;DHT22;4517;49.020;12.066;2023-03-31T13:19:55;11.60;99.90
8965;DHT22;4517;49.020;12.066;2023-03-31T13:22:34;11.80;99.90
8965;DHT22;4517;49.020;12.066;2023-03-31T13:28:14;12.10;99.90
8965;DHT22;4517;49.020;12.066;2023-03-31T13:33:23;12.60;99.90
8965;DHT22;4517;49.020;12.066;2023-03-31T13:36:17;12.60;99.90
8965;DHT22;4517;49.020;12.066;2023-03-31T13:38:55;12.70;99.90
8965;DHT22;4517;49.020;12.066;2023-03-31T13:53:06;8.60;99.90
8965;DHT22;4517;49.020;12.066;2023-03-31T13:56:04;8.60;99.90
8965;DHT22;4517;49.020;12.066;2023-03-31T14:01:47;8.60;99.90
8965;DHT22;4517;49.020;12.066;2023-03-31T14:07:12;8.90;99.90
8965;DHT22;4517;49.020;12.066;2023-03-31T14:09:42;8.90;99.90
8965;DHT22;4517;49.020;12.066;2023-03-31T14:14:46;9.20;99.90
8965;DHT22;4517;49.020;12.066;2023-03-31T14:17:12;9.30;99.90
8965;DHT22;4517;49.020;12.066;2023-03-31T14:19:41;9.40;99.90
8965;DHT22;4517;49.020;12.066;2023-03-31T14:25:25;9.90;99.90
8965;DHT22;4517;49.020;12.066;2023-03-31T14:30:48;10.50;99.90
8965;DHT22;4517;49.020;12.066;2023-03-31T14:38:19;11.40;99.90
8965;DHT22;4517;49.020;12.066;2023-03-31T14:40:52;11.50;99.90
8965;DHT22;4517;49.020;12.066;2023-03-31T14:43:24;11.50;99.90
8965;DHT22;4517;49.020;12.066;2023-03-31T14:45:58;11.40;99.90
8965;DHT22;4517;49.020;12.066;2023-03-31T14:48:29;11.40;99.90
8965;DHT22;4517;49.020;12.066;2023-03-31T14:50:57;11.50;99.90
8965;DHT22;4517;49.020;12.066;2023-03-31T14:53:24;11.40;99.90
8965;DHT22;4517;49.020;12.066;2023-03-31T14:55:58;11.50;99.90
8965;DHT22;4517;49.020;12.066;2023-03-31T14:58:31;11.60;99.90
8965;DHT22;4517;49.020;12.066;2023-03-31T15:01:00;11.70;99.90
8965;DHT22;4517;49.020;12.066;2023-03-31T15:03:26;11.80;99.90
8965;DHT22;4517;49.020;12.066;2023-03-31T15:05:59;12.00;99.90
8965;DHT22;4517;49.020;12.066;2023-03-31T15:08:26;12.10;99.90
8965;DHT22;4517;49.020;12.066;2023-03-31T15:10:59;12.20;99.90
8965;DHT22;4517;49.020;12.066;2023-03-31T15:13:41;12.30;99.90
8965;DHT22;4517;49.020;12.066;2023-03-31T15:16:34;12.40;99.90
8965;DHT22;4517;49.020;12.066;2023-03-31T15:19:06;12.70;99.90
8965;DHT22;4517;49.020;12.066;2023-03-31T15:21:37;12.70;99.90
8965;DHT22;4517;49.020;12.066;2023-03-31T15:24:03;12.80;99.90
8965;DHT22;4517;49.020;12.066;2023-03-31T15:26:35;12.90;99.90
8965;DHT22;4517;49.020;12.066;2023-03-31T15:31:55;12.80;99.90
8965;DHT22;4517;49.020;12.066;2023-03-31T15:34:25;12.90;99.90
8965;DHT22;4517;49.020;12.066;2023-03-31T15:36:55;12.90;99.90
8965;DHT22;4517;49.020;12.066;2023-03-31T15:39:23;13.00;99.90
8965;DHT22;4517;49.020;12.066;2023-03-31T15:41:49;13.10;99.90
8965;DHT22;4517;49.020;12.066;2023-03-31T15:44:29;13.20;99.90
8965;DHT22;4517;49.020;12.066;2023-03-31T15:47:12;13.20;99.90
8965;DHT22;4517;49.020;12.066;2023-03-31T15:49:52;13.20;99.90
8965;DHT22;4517;49.020;12.066;2023-03-31T15:52:29;13.20;99.90
8965;DHT22;4517;49.020;12.066;2023-03-31T15:54:56;13.20;99.90
8965;DHT22;4517;49.020;12.066;2023-03-31T15:57:30;13.50;99.90
8965;DHT22;4517;49.020;12.066;2023-03-31T15:59:56;13.60;99.90
8965;DHT22;4517;49.020;12.066;2023-03-31T16:02:33;13.60;99.90
8965;DHT22;4517;49.020;12.066;2023-03-31T16:05:01;13.30;99.90
8965;DHT22;4517;49.020;12.066;2023-03-31T16:07:33;13.00;99.90
8965;DHT22;4517;49.020;12.066;2023-03-31T16:10:15;12.80;99.90
8965;DHT22;4517;49.020;12.066;2023-03-31T16:13:00;12.70;99.90
8965;DHT22;4517;49.020;12.066;2023-03-31T16:15:40;12.60;99.90
8965;DHT22;4517;49.020;12.066;2023-03-31T16:18:10;12.50;99.90
8965;DHT22;4517;49.020;12.066;2023-03-31T16:20:39;12.50;99.90
8965;DHT22;4517;49.020;12.066;2023-03-31T16:23:17;12.50;99.90
8965;DHT22;4517;49.020;12.066;2023-03-31T16:25:44;12.50;99.90
8965;DHT22;4517;49.020;12.066;2023-03-31T16:28:23;12.40;99.90
8965;DHT22;4517;49.020;12.066;2023-03-31T16:30:49;12.40;99.90
8965;DHT22;4517;49.020;12.066;2023-03-31T16:33:17;12.40;99.90
8965;DHT22;4517;49.020;12.066;2023-03-31T16:35:46;12.30;99.90
8965;DHT22;4517;49.020;12.066;2023-03-31T16:38:17;12.30;99.90
8965;DHT22;4517;49.020;12.066;2023-03-31T16:40:45;12.20;99.90
8965;DHT22;4517;49.020;12.066;2023-03-31T16:45:37;12.10;99.90
8965;DHT22;4517;49.020;12.066;2023-03-31T16:48:03;11.90;99.90
8965;DHT22;4517;49.020;12.066;2023-03-31T16:50:28;11.90;99.90
8965;DHT22;4517;49.020;12.066;2023-03-31T16:52:54;11.70;99.90
8965;DHT22;4517;49.020;12.066;2023-03-31T16:55:20;11.70;99.90
8965;DHT22;4517;49.020;12.066;2023-03-31T16:57:46;11.60;99.90
8965;DHT22;4517;49.020;12.066;2023-03-31T17:00:13;11.50;99.90
8965;DHT22;4517;49.020;12.066;2023-03-31T17:02:39;11.70;99.90
8965;DHT22;4517;49.020;12.066;2023-03-31T17:05:05;11.60;99.90
8965;DHT22;4517;49.020;12.066;2023-03-31T17:07:30;11.70;99.90
8965;DHT22;4517;49.020;12.066;2023-03-31T17:09:57;11.80;99.90
8965;DHT22;4517;49.020;12.066;2023-03-31T17:12:23;11.80;99.90
8965;DHT22;4517;49.020;12.066;2023-03-31T17:14:49;11.90;99.90
8965;DHT22;4517;49.020;12.066;2023-03-31T17:17:14;11.70;99.90
8965;DHT22;4517;49.020;12.066;2023-03-31T17:19:40;11.70;99.90
8965;DHT22;4517;49.020;12.066;2023-03-31T17:22:06;11.70;99.90
8965;DHT22;4517;49.020;12.066;2023-03-31T17:24:32;11.60;99.90
8965;DHT22;4517;49.020;12.066;2023-03-31T17:26:57;11.50;99.90
8965;DHT22;4517;49.020;12.066;2023-03-31T17:29:23;11.40;99.90
8965;DHT22;4517;49.020;12.066;2023-03-31T17:31:49;11.20;99.90
8965;DHT22;4517;49.020;12.066;2023-03-31T17:34:15;11.10;99.90
8965;DHT22;4517;49.020;12.066;2023-03-31T17:36:41;10.90;99.90
8965;DHT22;4517;49.020;12.066;2023-03-31T17:39:08;10.80;99.90
8965;DHT22;4517;49.020;12.066;2023-03-31T17:41:34;10.80;99.90
8965;DHT22;4517;49.020;12.066;2023-03-31T17:44:01;10.70;99.90
8965;DHT22;4517;49.020;12.066;2023-03-31T17:46:27;10.60;99.90
8965;DHT22;4517;49.020;12.066;2023-03-31T17:48:53;10.50;99.90
8965;DHT22;4517;49.020;12.066;2023-03-31T17:51:22;10.40;99.90
8965;DHT22;4517;49.020;12.066;2023-03-31T17:53:48;10.30;99.90
8965;DHT22;4517;49.020;12.066;2023-03-31T17:56:15;10.10;99.90
8965;DHT22;4517;49.020;12.066;2023-03-31T17:58:40;10.20;99.90
8965;DHT22;4517;49.020;12.066;2023-03-31T18:01:07;10.00;99.90
8965;DHT22;4517;49.020;12.066;2023-03-31T18:03:34;9.80;99.90
8965;DHT22;4517;49.020;12.066;2023-03-31T18:06:08;9.60;99.90
8965;DHT22;4517;49.020;12.066;2023-03-31T18:08:36;9.50;99.90
8965;DHT22;4517;49.020;12.066;2023-03-31T18:11:03;9.40;99.90
8965;DHT22;4517;49.020;12.066;2023-03-31T18:13:30;9.30;99.90
8965;DHT22;4517;49.020;12.066;2023-03-31T18:15:57;9.20;99.90
8965;DHT22;4517;49.020;12.066;2023-03-31T18:18:26;9.10;99.90
8965;DHT22;4517;49.020;12.066;2023-03-31T18:20:54;8.90;99.90
8965;DHT22;4517;49.020;12.066;2023-03-31T18:23:20;8.90;99.90
8965;DHT22;4517;49.020;12.066;2023-03-31T18:25:45;8.80;99.90
8965;DHT22;4517;49.020;12.066;2023-03-31T18:28:16;8.80;99.90
8965;DHT22;4517;49.020;12.066;2023-03-31T18:30:42;8.90;99.90
8965;DHT22;4517;49.020;12.066;2023-03-31T18:33:09;9.00;99.90
8965;DHT22;4517;49.020;12.066;2023-03-31T18:35:35;8.90;99.90
8965;DHT22;4517;49.020;12.066;2023-03-31T18:38:01;9.00;99.90
8965;DHT22;4517;49.020;12.066;2023-03-31T18:40:26;9.00;99.90
8965;DHT22;4517;49.020;12.066;2023-03-31T18:42:52;9.10;99.90
8965;DHT22;4517;49.020;12.066;2023-03-31T18:45:18;9.30;99.90
8965;DHT22;4517;49.020;12.066;2023-03-31T18:47:43;9.30;99.90